Time;durP1;ratioP1;P1;durP2;ratioP2;P2;SDS_P1;SDS_P2;PMS_P1;PMS_P2;Temp;Humidity;BMP_temperature;BMP_pressure;BME280_temperature;BME280_humidity;BME280_pressure;Samples;Min_cycle;Max_cycle;Signal;HPM_P1;HPM_P2
2023/02/20 00:01:13;;;;;;;;;;;;;;;18.59;38.21;100671.73;106182;1282;62084;-81
2023/02/20 00:03:38;;;;;;;;;;;;;;;18.59;38.37;100674.95;106175;1281;62228;-81
2023/02/20 00:06:04;;;;;;;;;;;;;;;18.59;38.27;100687.08;106066;1288;62027;-81
2023/02/20 00:08:29;;;;;;;;;;;;;;;18.59;38.23;100691.16;106171;1283;61964;-81
2023/02/20 00:10:55;;;;;;;;;;;;;;;18.59;38.27;100695.45;106158;1283;62040;-81
2023/02/20 00:13:20;;;;;;;;;;;;;;;18.59;38.23;100697.77;106277;1282;62067;-81
2023/02/20 00:15:46;;;;;;;;;;;;;;;18.58;38.22;100694.77;106277;1282;62206;-81
2023/02/20 00:18:12;;;;;;;;;;;;;;;18.58;38.28;100691.06;106145;1283;60846;-81
2023/02/20 00:20:37;;;;;;;;;;;;;;;18.58;38.42;100692.46;106211;1282;61006;-81
2023/02/20 00:23:03;;;;;;;;;;;;;;;18.58;38.33;100695.53;106155;1282;62059;-81
2023/02/20 00:25:28;;;;;;;;;;;;;;;18.58;38.37;100697.65;106160;1283;62168;-81
2023/02/20 00:27:54;;;;;;;;;;;;;;;18.57;38.35;100698.43;106176;1282;60350;-81
2023/02/20 00:30:21;;;;;;;;;;;;;;;18.58;38.41;100700.18;106036;1282;62232;-81
2023/02/20 00:32:46;;;;;;;;;;;;;;;18.57;38.38;100694.34;106178;1287;62070;-80
2023/02/20 00:35:13;;;;;;;;;;;;;;;18.57;38.40;100692.73;106291;1282;61961;-80
2023/02/20 00:37:38;;;;;;;;;;;;;;;18.57;38.34;100687.40;106159;1282;76224;-80
2023/02/20 00:40:05;;;;;;;;;;;;;;;18.57;38.45;100689.55;106283;1282;62095;-80
2023/02/20 00:42:31;;;;;;;;;;;;;;;18.56;38.33;100693.11;106168;1281;62110;-81
2023/02/20 00:44:56;;;;;;;;;;;;;;;18.56;38.26;100694.76;106245;1282;62162;-81
2023/02/20 00:47:21;;;;;;;;;;;;;;;18.56;38.31;100693.30;106181;1283;62046;-81
2023/02/20 00:49:47;;;;;;;;;;;;;;;18.56;38.28;100695.30;106185;1283;62075;-81
2023/02/20 00:52:13;;;;;;;;;;;;;;;18.56;38.32;100693.69;106197;1282;62082;-81
2023/02/20 00:54:38;;;;;;;;;;;;;;;18.56;38.38;100695.48;106178;1282;62296;-81
2023/02/20 00:57:04;;;;;;;;;;;;;;;18.56;38.29;100697.80;106162;1282;63707;-81
2023/02/20 00:59:30;;;;;;;;;;;;;;;18.55;38.39;100699.27;106249;1282;62149;-81
2023/02/20 01:01:55;;;;;;;;;;;;;;;18.55;38.41;100699.98;106049;1282;62079;-81
2023/02/20 01:04:21;;;;;;;;;;;;;;;18.55;38.34;100698.72;106277;1282;62081;-80
2023/02/20 01:06:47;;;;;;;;;;;;;;;18.55;38.50;100697.32;106159;1282;62388;-80
2023/02/20 01:09:13;;;;;;;;;;;;;;;18.55;38.51;100700.16;106188;1284;62078;-80
2023/02/20 01:11:42;;;;;;;;;;;;;;;18.55;38.50;100711.94;106187;1282;62063;-80
2023/02/20 01:14:08;;;;;;;;;;;;;;;18.55;38.39;100722.98;106065;1282;62079;-81
2023/02/20 01:16:33;;;;;;;;;;;;;;;18.55;38.45;100735.96;106164;1282;62086;-81
2023/02/20 01:18:59;;;;;;;;;;;;;;;18.55;38.54;100739.22;106286;1282;61998;-81
2023/02/20 01:21:24;;;;;;;;;;;;;;;18.54;38.48;100740.30;106209;1285;62117;-81
2023/02/20 01:23:50;;;;;;;;;;;;;;;18.55;38.57;100752.39;106056;1281;62076;-80
2023/02/20 01:26:18;;;;;;;;;;;;;;;18.54;38.53;100758.65;106271;1282;62040;-80
2023/02/20 01:28:44;;;;;;;;;;;;;;;18.54;38.54;100758.84;106345;1282;61938;-80
2023/02/20 01:31:09;;;;;;;;;;;;;;;18.55;38.45;100756.33;106134;1283;62079;-81
2023/02/20 01:33:35;;;;;;;;;;;;;;;18.54;38.49;100757.78;106133;1287;62114;-81
2023/02/20 01:36:01;;;;;;;;;;;;;;;18.54;38.50;100759.77;106192;1282;62171;-81
2023/02/20 01:38:26;;;;;;;;;;;;;;;18.54;38.50;100761.73;106050;1281;62091;-81
2023/02/20 01:40:52;;;;;;;;;;;;;;;18.54;38.60;100768.66;106195;1282;62088;-81
2023/02/20 01:43:17;;;;;;;;;;;;;;;18.54;38.67;100785.96;106244;1285;73408;-81
2023/02/20 01:45:43;;;;;;;;;;;;;;;18.54;38.53;100808.42;106192;1283;62228;-81
2023/02/20 01:48:26;;;;;;;;;;;;;;;18.53;38.52;100814.52;106190;1282;62035;-81
2023/02/20 01:50:53;;;;;;;;;;;;;;;18.53;38.54;100819.16;106304;1282;62041;-81
2023/02/20 01:53:21;;;;;;;;;;;;;;;18.53;38.50;100830.73;106147;1283;73644;-81
2023/02/20 01:55:48;;;;;;;;;;;;;;;18.53;38.67;100835.02;106102;1282;76266;-81
2023/02/20 01:58:15;;;;;;;;;;;;;;;18.53;38.65;100841.61;106174;1283;62062;-81
2023/02/20 02:00:41;;;;;;;;;;;;;;;18.53;38.65;100847.87;106179;1282;61936;-81
2023/02/20 02:03:11;;;;;;;;;;;;;;;18.52;38.58;100851.81;106162;1283;62072;-81
2023/02/20 02:05:40;;;;;;;;;;;;;;;18.52;38.67;100854.12;106171;1282;76205;-81
2023/02/20 02:08:06;;;;;;;;;;;;;;;18.53;38.70;100859.85;106164;1283;62082;-81
2023/02/20 02:10:38;;;;;;;;;;;;;;;18.52;38.77;100883.02;106282;1282;62062;-81
2023/02/20 02:13:04;;;;;;;;;;;;;;;18.52;38.60;100905.83;106270;1282;72504;-81
2023/02/20 02:15:29;;;;;;;;;;;;;;;18.51;38.68;100910.69;106112;1283;62072;-81
2023/02/20 02:17:58;;;;;;;;;;;;;;;18.52;38.64;100909.04;106140;1282;62036;-81
2023/02/20 02:20:23;;;;;;;;;;;;;;;18.52;38.67;100911.73;106148;1282;61964;-81
2023/02/20 02:22:52;;;;;;;;;;;;;;;18.51;38.65;100914.80;106270;1282;62047;-81
2023/02/20 02:25:36;;;;;;;;;;;;;;;18.51;38.68;100924.78;106236;1283;75353;-81
2023/02/20 02:28:07;;;;;;;;;;;;;;;18.51;38.61;100932.11;106160;1282;62447;-81
2023/02/20 02:30:51;;;;;;;;;;;;;;;18.50;38.69;100931.24;106186;1282;61963;-81
2023/02/20 02:33:30;;;;;;;;;;;;;;;18.50;38.71;100944.63;106201;1282;72450;-81
2023/02/20 02:36:15;;;;;;;;;;;;;;;18.50;38.66;100956.21;106244;1282;76266;-81
2023/02/20 02:38:46;;;;;;;;;;;;;;;18.50;38.78;100973.69;106246;1282;61964;-81
2023/02/20 02:41:16;;;;;;;;;;;;;;;18.49;38.71;100986.92;106193;1283;62072;-81
2023/02/20 02:43:47;;;;;;;;;;;;;;;18.49;38.67;100997.96;106163;1288;72440;-81
2023/02/20 02:46:30;;;;;;;;;;;;;;;18.49;38.79;100989.27;106155;1282;74797;-80
2023/02/20 02:48:58;;;;;;;;;;;;;;;18.49;38.73;100981.59;106172;1282;61877;-80
2023/02/20 02:51:26;;;;;;;;;;;;;;;18.48;38.82;100986.98;106269;1282;61935;-81
2023/02/20 02:54:06;;;;;;;;;;;;;;;18.49;38.65;100996.40;106199;1282;72163;-81
2023/02/20 02:56:38;;;;;;;;;;;;;;;18.48;38.63;101009.48;106280;1282;76193;-81
2023/02/20 02:59:06;;;;;;;;;;;;;;;18.48;38.71;101017.69;106256;1282;61970;-81
2023/02/20 03:01:32;;;;;;;;;;;;;;;18.47;38.80;101021.27;106170;1282;62089;-81
2023/02/20 03:03:58;;;;;;;;;;;;;;;18.47;38.77;101025.70;106166;1282;62043;-80
2023/02/20 03:06:29;;;;;;;;;;;;;;;18.47;38.82;101018.60;106185;1282;62101;-80
2023/02/20 03:08:59;;;;;;;;;;;;;;;18.47;38.82;101029.67;106297;1282;61822;-80
2023/02/20 03:11:26;;;;;;;;;;;;;;;18.46;38.69;101021.48;106153;1281;62133;-80
2023/02/20 03:16:58;;;;;;;;;;;;;;;18.46;38.80;101031.16;106279;1282;76401;-80
2023/02/20 03:19:33;;;;;;;;;;;;;;;18.46;38.83;101031.32;106267;1282;62028;-80
2023/02/20 03:21:58;;;;;;;;;;;;;;;18.45;38.86;101041.67;106270;1282;62079;-80
2023/02/20 03:24:24;;;;;;;;;;;;;;;18.45;38.73;101050.23;106161;1282;62195;-80
2023/02/20 03:26:51;;;;;;;;;;;;;;;18.45;38.68;101050.61;106183;1281;62079;-80
2023/02/20 03:29:18;;;;;;;;;;;;;;;18.44;38.81;101049.74;106186;1282;62091;-80
2023/02/20 03:31:50;;;;;;;;;;;;;;;18.44;38.72;101047.26;106206;1282;61921;-81
2023/02/20 03:45:22;;;;;;;;;;;;;;;18.43;38.83;101061.03;106269;1282;73377;-80
2023/02/20 03:47:48;;;;;;;;;;;;;;;18.42;38.93;101061.97;106005;1282;76253;-80
2023/02/20 03:50:14;;;;;;;;;;;;;;;18.42;38.83;101071.25;106174;1282;61965;-80
2023/02/20 03:52:40;;;;;;;;;;;;;;;18.42;38.79;101080.88;106052;1282;62159;-81
2023/02/20 03:55:08;;;;;;;;;;;;;;;18.42;38.85;101077.86;106291;1282;62069;-80
2023/02/20 03:57:34;;;;;;;;;;;;;;;18.41;38.77;101073.41;105909;1285;75379;-81
2023/02/20 04:00:23;;;;;;;;;;;;;;;18.41;38.72;101071.30;105866;1285;62079;-81
2023/02/20 04:02:49;;;;;;;;;;;;;;;18.41;38.74;101077.92;105886;1285;61956;-80
2023/02/20 04:05:17;;;;;;;;;;;;;;;18.41;38.80;101081.11;105924;1285;62082;-80
2023/02/20 04:07:45;;;;;;;;;;;;;;;18.40;38.68;101085.24;105855;1285;75130;-81
2023/02/20 04:10:13;;;;;;;;;;;;;;;18.41;38.78;101093.42;105935;1285;61967;-81
2023/02/20 04:12:40;;;;;;;;;;;;;;;18.40;38.77;101095.23;105877;1285;61053;-80
2023/02/20 04:15:06;;;;;;;;;;;;;;;18.40;38.88;101102.56;105876;1290;73537;-80
2023/02/20 04:17:33;;;;;;;;;;;;;;;18.40;38.80;101107.38;105929;1286;62087;-80
2023/02/20 04:19:59;;;;;;;;;;;;;;;18.40;38.85;101114.34;105872;1285;62087;-80
2023/02/20 04:22:26;;;;;;;;;;;;;;;18.39;38.76;101114.73;105961;1285;61332;-81
2023/02/20 04:24:54;;;;;;;;;;;;;;;18.39;38.77;101115.79;105862;1286;62109;-80
2023/02/20 04:27:20;;;;;;;;;;;;;;;18.39;38.69;101117.05;105925;1285;74996;-80
2023/02/20 04:29:45;;;;;;;;;;;;;;;18.39;38.86;101123.64;106234;1282;62085;-80
2023/02/20 04:32:11;;;;;;;;;;;;;;;18.38;38.84;101136.15;106221;1281;62018;-80
2023/02/20 04:34:36;;;;;;;;;;;;;;;18.38;38.80;101143.84;106162;1284;62191;-81
2023/02/20 04:37:10;;;;;;;;;;;;;;;18.38;38.73;101148.13;106205;1282;62044;-81
2023/02/20 04:39:35;;;;;;;;;;;;;;;18.38;38.71;101152.23;106243;1282;74913;-80
2023/02/20 04:42:01;;;;;;;;;;;;;;;18.37;38.64;101149.39;106196;1283;62615;-80
2023/02/20 04:44:32;;;;;;;;;;;;;;;18.37;38.71;101157.77;106192;1282;62082;-81
2023/02/20 04:47:03;;;;;;;;;;;;;;;18.37;38.70;101162.23;106177;1282;73724;-81
2023/02/20 04:49:28;;;;;;;;;;;;;;;18.36;38.76;101161.41;106276;1282;75188;-80
2023/02/20 04:51:54;;;;;;;;;;;;;;;18.36;38.72;101157.11;106163;1282;62228;-81
2023/02/20 04:54:20;;;;;;;;;;;;;;;18.36;38.74;101162.48;106176;1282;62075;-81
2023/02/20 04:56:46;;;;;;;;;;;;;;;18.35;38.71;101166.97;106176;1287;62090;-81
2023/02/20 04:59:11;;;;;;;;;;;;;;;18.35;38.70;101174.27;106162;1283;62198;-81
2023/02/20 05:01:37;;;;;;;;;;;;;;;18.35;38.81;101180.52;106192;1283;62184;-81
2023/02/20 05:04:02;;;;;;;;;;;;;;;18.35;38.56;101177.85;106173;1283;62149;-80
2023/02/20 05:06:29;;;;;;;;;;;;;;;18.35;38.67;101179.64;106083;1282;62168;-80
2023/02/20 05:08:58;;;;;;;;;;;;;;;18.35;38.56;101184.09;106201;1283;72558;-80
2023/02/20 05:11:23;;;;;;;;;;;;;;;18.34;38.55;101188.23;106152;1282;62083;-81
2023/02/20 05:13:48;;;;;;;;;;;;;;;18.34;38.60;101194.13;106285;1282;62161;-80
2023/02/20 05:16:14;;;;;;;;;;;;;;;18.34;38.48;101197.52;106185;1282;62159;-80
2023/02/20 05:18:39;;;;;;;;;;;;;;;18.34;38.63;101211.07;106296;1283;62044;-80
2023/02/20 05:23:49;;;;;;;;;;;;;;;18.34;38.52;101223.70;106272;1282;76022;-80
2023/02/20 05:26:19;;;;;;;;;;;;;;;18.33;38.43;101231.42;106189;1281;62070;-80
2023/02/20 05:28:45;;;;;;;;;;;;;;;18.33;38.48;101233.72;106178;1283;61957;-80
2023/02/20 05:31:10;;;;;;;;;;;;;;;18.33;38.40;101241.21;106161;1282;62704;-80
2023/02/20 05:33:36;;;;;;;;;;;;;;;18.32;38.37;101245.68;106171;1281;62154;-80
2023/02/20 05:36:01;;;;;;;;;;;;;;;18.33;38.41;101255.47;106184;1282;62138;-80
2023/02/20 05:38:27;;;;;;;;;;;;;;;18.33;38.40;101253.71;106211;1282;62190;-81
2023/02/20 05:40:52;;;;;;;;;;;;;;;18.33;38.31;101259.25;106295;1283;62162;-81
2023/02/20 05:43:21;;;;;;;;;;;;;;;18.33;38.19;101264.23;106178;1282;62136;-81
2023/02/20 05:45:46;;;;;;;;;;;;;;;18.33;38.31;101271.02;106149;1281;76424;-81
2023/02/20 05:48:12;;;;;;;;;;;;;;;18.32;38.13;101284.21;106207;1282;62107;-81
2023/02/20 05:50:38;;;;;;;;;;;;;;;18.32;38.35;101293.99;106280;1282;62176;-81
2023/02/20 05:53:03;;;;;;;;;;;;;;;18.32;38.14;101303.30;105918;1285;62114;-81
2023/02/20 05:55:29;;;;;;;;;;;;;;;18.32;38.24;101308.83;105937;1289;62143;-81
2023/02/20 05:57:56;;;;;;;;;;;;;;;18.32;38.20;101316.65;105887;1285;76142;-81
2023/02/20 06:00:22;;;;;;;;;;;;;;;18.32;38.06;101318.44;105911;1285;62166;-81
2023/02/20 06:02:47;;;;;;;;;;;;;;;18.32;38.15;101329.14;105872;1285;61954;-81
2023/02/20 06:05:13;;;;;;;;;;;;;;;18.32;38.16;101340.70;105966;1285;62070;-81
2023/02/20 06:07:39;;;;;;;;;;;;;;;18.32;38.11;101348.91;105855;1285;62203;-80
2023/02/20 06:10:05;;;;;;;;;;;;;;;18.32;38.04;101359.41;106015;1285;62214;-80
2023/02/20 06:12:30;;;;;;;;;;;;;;;18.31;38.16;101361.21;105885;1285;61836;-80
2023/02/20 06:14:56;;;;;;;;;;;;;;;18.31;38.00;101363.91;105979;1285;60204;-81
2023/02/20 06:17:21;;;;;;;;;;;;;;;18.32;38.14;101376.55;105724;1285;62431;-80
2023/02/20 06:19:48;;;;;;;;;;;;;;;18.31;38.01;101379.41;105957;1285;62150;-80
2023/02/20 06:22:15;;;;;;;;;;;;;;;18.32;38.03;101379.38;105888;1285;62188;-80
2023/02/20 06:24:43;;;;;;;;;;;;;;;18.34;38.17;101377.31;106049;1282;62084;-81
2023/02/20 06:27:09;;;;;;;;;;;;;;;18.35;38.15;101378.68;106149;1282;62072;-81
2023/02/20 06:29:34;;;;;;;;;;;;;;;18.37;38.27;101377.67;106161;1281;60869;-81
2023/02/20 06:32:00;;;;;;;;;;;;;;;18.40;38.26;101374.48;106190;1282;62479;-81
2023/02/20 06:34:30;;;;;;;;;;;;;;;18.44;38.31;101380.17;106192;1282;62072;-81
2023/02/20 06:36:56;;;;;;;;;;;;;;;18.49;38.35;101392.39;106224;1282;73264;-82
2023/02/20 06:39:21;;;;;;;;;;;;;;;18.54;38.29;101400.17;106176;1282;60893;-82
2023/02/20 06:41:47;;;;;;;;;;;;;;;18.60;38.09;101414.14;106231;1282;62053;-81
2023/02/20 06:44:12;;;;;;;;;;;;;;;18.65;38.39;101416.90;106206;1281;60023;-81
2023/02/20 06:46:38;;;;;;;;;;;;;;;18.70;38.30;101411.46;106201;1282;61978;-81
2023/02/20 06:49:04;;;;;;;;;;;;;;;18.76;38.34;101404.21;106227;1282;62146;-81
2023/02/20 06:51:32;;;;;;;;;;;;;;;18.81;38.19;101405.55;106189;1282;62087;-81
2023/02/20 06:53:58;;;;;;;;;;;;;;;18.86;38.14;101410.48;106209;1282;61961;-81
2023/02/20 06:56:25;;;;;;;;;;;;;;;18.92;38.12;101414.67;106295;1281;62132;-81
2023/02/20 06:58:50;;;;;;;;;;;;;;;18.98;38.19;101432.38;106187;1282;61942;-81
2023/02/20 07:01:16;;;;;;;;;;;;;;;19.04;38.01;101449.20;105771;1283;713862;-81
2023/02/20 07:03:42;;;;;;;;;;;;;;;19.09;37.92;101453.20;106297;1283;62072;-81
2023/02/20 07:06:08;;;;;;;;;;;;;;;19.14;38.10;101451.90;106208;1283;62232;-81
2023/02/20 07:08:33;;;;;;;;;;;;;;;19.18;38.04;101453.25;106040;1282;62205;-81
2023/02/20 07:10:59;;;;;;;;;;;;;;;19.23;37.95;101452.65;106194;1282;62270;-81
2023/02/20 07:13:24;;;;;;;;;;;;;;;19.28;38.04;101459.70;106139;1282;61899;-81
2023/02/20 07:15:51;;;;;;;;;;;;;;;19.32;37.91;101463.05;106164;1282;62102;-81
2023/02/20 07:18:17;;;;;;;;;;;;;;;19.36;37.89;101462.47;106072;1282;62149;-81
2023/02/20 07:20:43;;;;;;;;;;;;;;;19.39;37.88;101457.70;106115;1283;62051;-81
2023/02/20 07:23:08;;;;;;;;;;;;;;;19.42;37.82;101460.03;106158;1282;61999;-82
2023/02/20 07:25:35;;;;;;;;;;;;;;;19.46;38.07;101469.29;106308;1282;62037;-82
2023/02/20 07:28:01;;;;;;;;;;;;;;;19.50;37.89;101478.89;106090;1281;62195;-82
2023/02/20 07:30:26;;;;;;;;;;;;;;;19.54;37.81;101476.89;106293;1282;62165;-82
2023/02/20 07:32:52;;;;;;;;;;;;;;;19.58;37.91;101478.44;106144;1283;74519;-81
2023/02/20 07:35:18;;;;;;;;;;;;;;;19.62;37.71;101478.23;106179;1282;62203;-82
2023/02/20 07:37:43;;;;;;;;;;;;;;;19.63;37.71;101478.73;106181;1281;62218;-81
2023/02/20 07:40:11;;;;;;;;;;;;;;;19.64;37.64;101479.02;106242;1282;62045;-81
2023/02/20 07:42:36;;;;;;;;;;;;;;;19.64;37.52;101472.23;106283;1282;61983;-81
2023/02/20 07:45:03;;;;;;;;;;;;;;;19.66;37.53;101467.69;106284;1282;62051;-81
2023/02/20 07:47:28;;;;;;;;;;;;;;;19.67;37.51;101477.25;106139;1282;60952;-82
2023/02/20 07:49:54;;;;;;;;;;;;;;;19.68;37.42;101481.48;106320;1282;62066;-81
2023/02/20 07:52:19;;;;;;;;;;;;;;;19.70;37.31;101489.04;106273;1282;61905;-81
2023/02/20 07:54:45;;;;;;;;;;;;;;;19.72;37.33;101493.59;106159;1283;62100;-81
2023/02/20 07:57:10;;;;;;;;;;;;;;;19.74;37.32;101499.02;106235;1282;62085;-81
2023/02/20 07:59:36;;;;;;;;;;;;;;;19.76;37.12;101496.41;106289;1283;62073;-81
2023/02/20 08:02:01;;;;;;;;;;;;;;;19.77;37.28;101488.30;106200;1282;62354;-81
2023/02/20 08:04:27;;;;;;;;;;;;;;;19.79;37.13;101475.91;106175;1282;61951;-81
2023/02/20 08:06:52;;;;;;;;;;;;;;;19.80;37.21;101474.58;106259;1282;62082;-81
2023/02/20 08:09:18;;;;;;;;;;;;;;;19.82;37.14;101474.50;106061;1282;61295;-81
2023/02/20 08:11:43;;;;;;;;;;;;;;;19.83;37.20;101473.35;106137;1282;62155;-81
2023/02/20 08:14:09;;;;;;;;;;;;;;;19.85;37.24;101472.89;106239;1282;62086;-81
2023/02/20 08:16:34;;;;;;;;;;;;;;;19.87;37.24;101478.67;106039;1282;60397;-81
2023/02/20 08:19:00;;;;;;;;;;;;;;;19.89;37.01;101488.73;106113;1283;63153;-82
2023/02/20 08:21:25;;;;;;;;;;;;;;;19.91;37.09;101493.48;106142;1282;60166;-81
2023/02/20 08:23:51;;;;;;;;;;;;;;;19.91;37.17;101498.10;106212;1282;60682;-82
2023/02/20 08:26:17;;;;;;;;;;;;;;;19.91;37.11;101503.46;106351;1282;61977;-82
2023/02/20 08:28:42;;;;;;;;;;;;;;;19.90;37.20;101507.23;106190;1282;62081;-81
2023/02/20 08:31:08;;;;;;;;;;;;;;;19.91;37.20;101506.33;106158;1282;62047;-82
2023/02/20 08:33:33;;;;;;;;;;;;;;;19.91;37.25;101516.50;106289;1282;62087;-81
2023/02/20 08:35:59;;;;;;;;;;;;;;;19.90;37.16;101533.52;106118;1282;62238;-82
2023/02/20 08:38:33;;;;;;;;;;;;;;;19.89;37.11;101543.23;106221;1285;62075;-81
2023/02/20 08:40:59;;;;;;;;;;;;;;;19.87;37.17;101550.29;106147;1282;62162;-81
2023/02/20 08:43:24;;;;;;;;;;;;;;;19.87;37.30;101551.04;106178;1282;62129;-81
2023/02/20 08:45:50;;;;;;;;;;;;;;;19.85;37.22;101553.27;106066;1282;62043;-81
2023/02/20 08:48:15;;;;;;;;;;;;;;;19.85;37.28;101554.00;106129;1282;62163;-81
2023/02/20 08:50:41;;;;;;;;;;;;;;;19.84;37.27;101558.49;106274;1283;62026;-81
2023/02/20 08:53:06;;;;;;;;;;;;;;;19.83;37.26;101562.11;106451;1283;61940;-81
2023/02/20 08:55:32;;;;;;;;;;;;;;;19.82;37.44;101559.34;106306;1282;62044;-81
2023/02/20 08:57:57;;;;;;;;;;;;;;;19.82;37.22;101559.34;106175;1287;62107;-81
2023/02/20 09:00:23;;;;;;;;;;;;;;;19.81;37.22;101565.64;106231;1282;62121;-81
2023/02/20 09:02:49;;;;;;;;;;;;;;;19.80;37.47;101568.16;106173;1282;61891;-81
2023/02/20 09:05:15;;;;;;;;;;;;;;;19.80;37.24;101562.99;106215;1282;61943;-81
2023/02/20 09:07:40;;;;;;;;;;;;;;;19.79;37.38;101559.27;106219;1283;62079;-81
2023/02/20 09:10:06;;;;;;;;;;;;;;;19.79;37.30;101556.06;106159;1281;62117;-81
2023/02/20 09:12:31;;;;;;;;;;;;;;;19.79;37.47;101558.77;106074;1283;62196;-81
2023/02/20 09:14:59;;;;;;;;;;;;;;;19.79;37.37;101559.14;106296;1282;61890;-81
2023/02/20 09:17:27;;;;;;;;;;;;;;;19.79;37.36;101554.15;106266;1283;62073;-82
2023/02/20 09:19:52;;;;;;;;;;;;;;;19.77;37.35;101555.27;106178;1283;60855;-82
2023/02/20 09:22:21;;;;;;;;;;;;;;;19.77;37.47;101559.55;106225;1282;61931;-81
2023/02/20 09:24:47;;;;;;;;;;;;;;;19.76;37.44;101566.36;106143;1283;62788;-81
2023/02/20 09:27:12;;;;;;;;;;;;;;;19.78;37.43;101572.40;106197;1287;62052;-81
2023/02/20 09:29:40;;;;;;;;;;;;;;;19.79;37.22;101583.77;106187;1283;62046;-81
2023/02/20 09:32:05;;;;;;;;;;;;;;;19.79;37.26;101586.61;106330;1282;62059;-81
2023/02/20 09:34:31;;;;;;;;;;;;;;;19.80;37.27;101586.58;105982;1285;60242;-81
2023/02/20 09:36:57;;;;;;;;;;;;;;;19.80;37.32;101592.81;105806;1285;62127;-81
2023/02/20 09:39:22;;;;;;;;;;;;;;;19.81;37.25;101601.02;105765;1285;62216;-81
2023/02/20 09:41:50;;;;;;;;;;;;;;;19.82;37.36;101603.31;105981;1285;75352;-82
2023/02/20 09:44:22;;;;;;;;;;;;;;;19.82;37.30;101604.73;105947;1285;62145;-81
2023/02/20 09:46:48;;;;;;;;;;;;;;;19.82;37.26;101609.16;105975;1285;62541;-81
2023/02/20 09:49:33;;;;;;;;;;;;;;;19.82;37.24;101607.38;105853;1285;62069;-81
2023/02/20 09:52:00;;;;;;;;;;;;;;;19.82;37.25;101615.21;105913;1285;76269;-82
2023/02/20 09:54:37;;;;;;;;;;;;;;;19.84;37.17;101621.95;105890;1285;60096;-82
2023/02/20 09:57:04;;;;;;;;;;;;;;;19.83;37.15;101625.73;105864;1286;61930;-81
2023/02/20 10:00:08;;;;;;;;;;;;;;;19.83;37.24;101623.23;105848;1285;73262;-81
2023/02/20 10:02:37;;;;;;;;;;;;;;;19.82;37.22;101613.43;105356;1290;75329;-81
2023/02/20 10:05:05;;;;;;;;;;;;;;;19.83;37.13;101607.88;105376;1288;61962;-81
2023/02/20 10:07:31;;;;;;;;;;;;;;;19.83;37.21;101609.10;105605;1288;62267;-81
2023/02/20 10:09:57;;;;;;;;;;;;;;;19.84;37.24;101611.37;105561;1288;62015;-81
2023/02/20 10:12:27;;;;;;;;;;;;;;;19.85;37.29;101609.71;105432;1288;61296;-81
2023/02/20 10:14:56;;;;;;;;;;;;;;;19.86;37.22;101607.86;105621;1288;61932;-81
2023/02/20 10:17:21;;;;;;;;;;;;;;;19.87;37.01;101609.99;105660;1288;60189;-81
2023/02/20 10:19:54;;;;;;;;;;;;;;;19.87;37.27;101602.45;105676;1288;62180;-81
2023/02/20 10:22:25;;;;;;;;;;;;;;;19.87;37.29;101606.40;105647;1288;77105;-81
2023/02/20 10:24:54;;;;;;;;;;;;;;;19.87;37.20;101611.92;105389;1288;62204;-81
2023/02/20 10:27:27;;;;;;;;;;;;;;;19.88;37.14;101616.69;105670;1288;62122;-81
2023/02/20 10:29:54;;;;;;;;;;;;;;;19.90;37.08;101614.64;105678;1288;73432;-81
2023/02/20 10:32:24;;;;;;;;;;;;;;;19.91;37.02;101617.61;105564;1289;61930;-82
2023/02/20 10:34:57;;;;;;;;;;;;;;;19.91;37.16;101614.56;106305;1282;61974;-81
2023/02/20 10:37:24;;;;;;;;;;;;;;;19.91;36.99;101608.85;106342;1285;62090;-80
2023/02/20 10:39:52;;;;;;;;;;;;;;;19.91;37.08;101607.61;105864;1283;72439;-80
2023/02/20 10:42:31;;;;;;;;;;;;;;;19.91;37.03;101608.66;106036;1283;74730;-81
2023/02/20 10:44:59;;;;;;;;;;;;;;;19.92;37.04;101595.98;106362;1282;60127;-81
2023/02/20 10:47:31;;;;;;;;;;;;;;;19.91;37.13;101595.63;106196;1285;62056;-81
2023/02/20 10:50:17;;;;;;;;;;;;;;;19.92;37.12;101592.58;106279;1283;72411;-81
2023/02/20 10:53:02;;;;;;;;;;;;;;;19.92;37.05;101589.53;106265;1282;76256;-81
2023/02/20 10:55:33;;;;;;;;;;;;;;;19.93;37.10;101576.97;106323;1282;61956;-81
2023/02/20 10:58:02;;;;;;;;;;;;;;;19.94;37.26;101572.65;106352;1282;62072;-81
2023/02/20 11:00:31;;;;;;;;;;;;;;;19.93;37.07;101570.89;106275;1283;73435;-81
2023/02/20 11:03:00;;;;;;;;;;;;;;;19.94;37.10;101563.52;106188;1282;76342;-81
2023/02/20 11:05:26;;;;;;;;;;;;;;;19.95;37.26;101565.65;106338;1282;61938;-81
2023/02/20 11:07:51;;;;;;;;;;;;;;;19.96;37.07;101557.72;106223;1283;62034;-81
2023/02/20 11:10:17;;;;;;;;;;;;;;;19.96;37.03;101549.48;106287;1282;60759;-81
2023/02/20 11:12:47;;;;;;;;;;;;;;;19.96;37.23;101540.38;106066;1283;60894;-81
2023/02/20 11:15:13;;;;;;;;;;;;;;;19.97;37.14;101536.58;106192;1283;61928;-80
2023/02/20 11:17:39;;;;;;;;;;;;;;;19.97;37.13;101534.94;106219;1282;62057;-81
2023/02/20 11:20:06;;;;;;;;;;;;;;;19.98;37.13;101538.45;106243;1282;62149;-80
2023/02/20 11:22:44;;;;;;;;;;;;;;;19.99;37.18;101534.70;106191;1282;62064;-81
2023/02/20 11:25:20;;;;;;;;;;;;;;;19.98;37.35;101529.87;106178;1282;61995;-81
2023/02/20 11:27:47;;;;;;;;;;;;;;;19.99;37.36;101532.69;106172;1282;62027;-81
2023/02/20 11:30:20;;;;;;;;;;;;;;;20.00;37.37;101532.30;106227;1282;73092;-81
2023/02/20 11:32:46;;;;;;;;;;;;;;;20.01;37.53;101534.91;106242;1282;75339;-81
2023/02/20 11:35:36;;;;;;;;;;;;;;;20.01;37.64;101538.66;106276;1282;62187;-81
2023/02/20 11:38:20;;;;;;;;;;;;;;;20.01;37.68;101537.80;105622;1289;61755;-81
2023/02/20 11:40:46;;;;;;;;;;;;;;;20.01;37.68;101529.73;105562;1288;72266;-81
2023/02/20 11:43:17;;;;;;;;;;;;;;;20.02;37.53;101530.22;105595;1291;62043;-81
2023/02/20 11:45:42;;;;;;;;;;;;;;;20.02;37.59;101526.48;105567;1292;62104;-81
2023/02/20 11:48:09;;;;;;;;;;;;;;;20.02;37.81;101529.30;105562;1288;62190;-81
2023/02/20 11:50:45;;;;;;;;;;;;;;;20.03;37.78;101521.77;105511;1288;62280;-81
2023/02/20 11:53:20;;;;;;;;;;;;;;;20.03;37.80;101524.42;105627;1288;75314;-81
2023/02/20 11:55:47;;;;;;;;;;;;;;;20.03;37.80;101518.35;105688;1288;61861;-80
2023/02/20 11:58:19;;;;;;;;;;;;;;;20.04;37.84;101518.66;105485;1288;61962;-81
2023/02/20 12:00:46;;;;;;;;;;;;;;;20.04;37.73;101513.66;105501;1288;72729;-81
2023/02/20 12:03:12;;;;;;;;;;;;;;;20.05;37.80;101513.77;105627;1288;61999;-81
2023/02/20 12:05:38;;;;;;;;;;;;;;;20.06;37.72;101509.42;105574;1288;61942;-81
2023/02/20 12:08:19;;;;;;;;;;;;;;;20.07;37.72;101506.14;105634;1288;62159;-81
2023/02/20 12:10:45;;;;;;;;;;;;;;;20.09;37.77;101502.13;105587;1288;72350;-81
2023/02/20 12:13:12;;;;;;;;;;;;;;;20.10;37.78;101498.11;105532;1289;62136;-81
2023/02/20 12:15:38;;;;;;;;;;;;;;;20.11;37.80;101501.64;105906;1282;62002;-81
2023/02/20 12:18:22;;;;;;;;;;;;;;;20.12;37.90;101501.98;106230;1283;62200;-81
2023/02/20 12:20:49;;;;;;;;;;;;;;;20.13;37.85;101493.33;106262;1285;73416;-81
2023/02/20 12:23:34;;;;;;;;;;;;;;;20.14;37.84;101485.05;106305;1282;74163;-81
2023/02/20 12:26:21;;;;;;;;;;;;;;;20.14;37.88;101475.04;106353;1281;62070;-81
2023/02/20 12:29:13;;;;;;;;;;;;;;;20.16;37.85;101466.73;106279;1282;62073;-81
2023/02/20 12:32:05;;;;;;;;;;;;;;;20.17;37.95;101463.58;106301;1282;73828;-81
2023/02/20 12:34:45;;;;;;;;;;;;;;;20.19;37.82;101469.39;105666;1289;75094;-81
2023/02/20 12:37:29;;;;;;;;;;;;;;;20.20;37.90;101468.80;105693;1289;62191;-81
2023/02/20 12:40:21;;;;;;;;;;;;;;;20.21;37.85;101470.16;105695;1288;62102;-81
2023/02/20 12:42:55;;;;;;;;;;;;;;;20.22;37.71;101464.05;105416;1289;72442;-81
2023/02/20 12:45:33;;;;;;;;;;;;;;;20.22;37.91;101466.19;105643;1288;75306;-81
2023/02/20 12:48:07;;;;;;;;;;;;;;;20.21;37.82;101460.17;105627;1288;62199;-81